createdAt,value
2023-05-10T00:00:51.725Z,51.10
2023-05-10T00:03:36.926Z,51.24
2023-05-10T00:06:21.697Z,50.98
2023-05-10T00:09:07.587Z,51.34
2023-05-10T00:11:52.407Z,51.42
2023-05-10T00:14:37.423Z,51.64
2023-05-10T00:17:22.335Z,51.46
2023-05-10T00:20:08.346Z,51.68
2023-05-10T00:22:53.182Z,52.23
2023-05-10T00:25:38.146Z,51.89
2023-05-10T00:28:23.185Z,52.45
2023-05-10T00:31:08.767Z,52.35
2023-05-10T00:33:54.068Z,52.90
2023-05-10T00:36:39.160Z,53.00
2023-05-10T00:39:24.351Z,53.19
2023-05-10T00:42:09.146Z,53.11
2023-05-10T00:44:54.532Z,53.33
2023-05-10T00:47:39.344Z,53.49
2023-05-10T00:50:24.604Z,53.72
2023-05-10T00:53:09.860Z,53.81
2023-05-10T00:55:55.208Z,54.15
2023-05-10T00:58:43.240Z,53.99
2023-05-10T01:01:29.589Z,54.23
2023-05-10T01:04:15.759Z,54.29
2023-05-10T01:07:00.966Z,54.62
2023-05-10T01:09:46.134Z,55.00
2023-05-10T01:12:31.244Z,54.72
2023-05-10T01:15:18.972Z,54.99
2023-05-10T01:18:04.640Z,54.87
2023-05-10T01:20:59.655Z,55.25
2023-05-10T01:23:53.661Z,55.03
2023-05-10T01:27:09.009Z,55.26
2023-05-10T01:30:16.143Z,55.03
2023-05-10T01:33:24.010Z,55.18
2023-05-10T01:36:36.291Z,54.92
2023-05-10T01:39:26.635Z,55.53
2023-05-10T01:42:15.128Z,55.43
2023-05-10T01:45:20.998Z,55.50
2023-05-10T01:48:11.929Z,55.73
2023-05-10T01:50:58.635Z,55.51
2023-05-10T01:53:45.548Z,55.84
2023-05-10T01:56:33.163Z,55.77
2023-05-10T01:59:20.110Z,55.47
2023-05-10T02:02:06.746Z,56.25
2023-05-10T02:04:54.082Z,56.35
2023-05-10T02:07:40.130Z,56.37
2023-05-10T02:10:25.078Z,56.90
2023-05-10T02:13:11.127Z,56.86
2023-05-10T02:15:57.946Z,57.08
2023-05-10T02:18:44.066Z,57.07
2023-05-10T02:21:30.620Z,57.53
2023-05-10T02:24:16.683Z,57.55
2023-05-10T02:27:04.255Z,57.52
2023-05-10T02:29:51.050Z,57.38
2023-05-10T02:32:36.887Z,57.34
2023-05-10T02:35:24.924Z,57.39
2023-05-10T02:38:12.552Z,57.90
2023-05-10T02:40:58.759Z,57.81
2023-05-10T02:43:45.199Z,57.52
2023-05-10T02:46:31.208Z,57.37
2023-05-10T02:49:17.113Z,57.37
2023-05-10T02:52:07.907Z,57.69
2023-05-10T02:54:57.032Z,58.10
2023-05-10T02:57:45.947Z,57.75
2023-05-10T03:00:31.155Z,58.18
2023-05-10T03:03:16.074Z,57.86
2023-05-10T03:06:01.737Z,58.42
2023-05-10T03:08:46.927Z,58.30
2023-05-10T03:11:38.034Z,58.51
2023-05-10T03:14:46.958Z,58.56
2023-05-10T03:18:03.006Z,58.69
2023-05-10T03:20:51.381Z,58.79
2023-05-10T03:23:45.584Z,58.88
2023-05-10T03:26:31.143Z,59.20
2023-05-10T03:29:16.881Z,59.29
2023-05-10T03:32:03.324Z,59.26
2023-05-10T03:34:48.092Z,59.44
2023-05-10T03:37:33.016Z,59.34
2023-05-10T03:40:18.365Z,59.36
2023-05-10T03:43:04.076Z,59.47
2023-05-10T03:45:49.365Z,59.57
2023-05-10T03:48:35.022Z,59.74
2023-05-10T03:51:20.373Z,59.53
2023-05-10T03:54:05.848Z,60.05
2023-05-10T03:56:50.911Z,59.80
2023-05-10T03:59:36.089Z,59.58
2023-05-10T04:02:21.741Z,59.77
2023-05-10T04:05:07.246Z,59.73
2023-05-10T04:07:52.200Z,59.61
2023-05-10T04:10:37.232Z,59.92
2023-05-10T04:13:23.392Z,60.05
2023-05-10T04:16:08.727Z,59.45
2023-05-10T04:18:54.076Z,60.00
2023-05-10T04:21:39.155Z,59.96
2023-05-10T04:24:24.686Z,59.96
2023-05-10T04:27:10.292Z,60.50
2023-05-10T04:29:55.288Z,59.55
2023-05-10T04:32:40.164Z,60.43
2023-05-10T04:35:25.371Z,59.89
2023-05-10T04:38:10.910Z,59.54
2023-05-10T04:40:55.928Z,59.24
2023-05-10T04:43:41.437Z,59.37
2023-05-10T04:46:26.811Z,59.13
2023-05-10T04:49:12.984Z,58.55
2023-05-10T04:51:57.976Z,58.89
2023-05-10T04:54:42.918Z,59.39
2023-05-10T04:57:27.971Z,58.75
2023-05-10T05:00:13.200Z,58.91
2023-05-10T05:02:59.436Z,58.99
2023-05-10T05:05:45.703Z,58.96
2023-05-10T05:08:31.166Z,58.90
2023-05-10T05:11:16.365Z,59.45
2023-05-10T05:14:01.929Z,59.64
2023-05-10T05:16:46.824Z,58.82
2023-05-10T05:19:32.371Z,58.70
2023-05-10T05:22:28.347Z,58.74
2023-05-10T05:25:13.699Z,58.03
2023-05-10T05:27:58.909Z,58.27
2023-05-10T05:30:46.757Z,57.41
2023-05-10T05:33:32.675Z,58.49
2023-05-10T05:36:18.129Z,57.91
2023-05-10T05:39:04.657Z,58.17
2023-05-10T05:41:50.613Z,58.09
2023-05-10T05:44:36.244Z,58.87
2023-05-10T05:47:21.026Z,58.69
2023-05-10T05:50:07.659Z,58.84
2023-05-10T05:52:54.231Z,58.55
2023-05-10T05:55:39.365Z,59.10
2023-05-10T05:58:25.307Z,58.83
2023-05-10T06:01:10.553Z,58.80
2023-05-10T06:03:55.968Z,59.05
2023-05-10T06:06:40.777Z,59.46
2023-05-10T06:09:26.170Z,59.18
2023-05-10T06:12:12.640Z,59.21
2023-05-10T06:14:58.253Z,59.22
2023-05-10T06:17:44.305Z,59.64
2023-05-10T06:20:29.348Z,59.79
2023-05-10T06:23:14.598Z,59.62
2023-05-10T06:25:59.738Z,59.27
2023-05-10T06:28:44.891Z,59.26
2023-05-10T06:31:30.340Z,59.83
2023-05-10T06:34:15.300Z,59.43
2023-05-10T06:37:01.264Z,58.19
2023-05-10T06:39:46.220Z,58.85
2023-05-10T06:42:31.681Z,57.91
2023-05-10T06:45:18.091Z,58.13
2023-05-10T06:48:03.500Z,58.74
2023-05-10T06:50:48.897Z,57.45
2023-05-10T06:53:34.029Z,57.68
2023-05-10T06:56:19.034Z,57.68
2023-05-10T06:59:04.176Z,57.11
2023-05-10T07:01:49.247Z,58.42
2023-05-10T07:04:34.903Z,56.96
2023-05-10T07:07:20.324Z,57.04
2023-05-10T07:10:05.866Z,57.73
2023-05-10T07:12:51.093Z,57.80
2023-05-10T07:15:36.620Z,58.35
2023-05-10T07:18:21.751Z,57.60
2023-05-10T07:21:08.011Z,58.14
2023-05-10T07:23:53.148Z,58.11
2023-05-10T07:26:38.419Z,56.95
2023-05-10T07:29:23.551Z,56.49
2023-05-10T07:32:09.151Z,56.66
2023-05-10T07:34:54.146Z,56.64
2023-05-10T07:37:39.154Z,56.56
2023-05-10T07:40:23.997Z,56.72
2023-05-10T07:43:09.087Z,56.57
2023-05-10T07:45:56.294Z,57.84
2023-05-10T07:48:41.706Z,57.49
2023-05-10T07:51:27.238Z,57.83
2023-05-10T07:54:12.582Z,58.67
2023-05-10T07:56:57.998Z,58.73
2023-05-10T07:59:43.153Z,60.36
2023-05-10T08:02:28.903Z,60.86
2023-05-10T08:05:14.529Z,60.93
2023-05-10T08:08:00.472Z,61.86
2023-05-10T08:10:45.580Z,62.19
2023-05-10T08:13:32.313Z,62.06
2023-05-10T08:16:18.115Z,62.56
2023-05-10T08:19:03.254Z,62.88
2023-05-10T08:21:48.301Z,62.10
2023-05-10T08:24:33.441Z,61.83
2023-05-10T08:27:19.029Z,62.86
2023-05-10T08:30:04.178Z,63.70
2023-05-10T08:32:49.396Z,65.96
2023-05-10T08:35:35.831Z,66.05
2023-05-10T08:38:21.137Z,67.56
2023-05-10T08:41:06.913Z,67.83
2023-05-10T08:43:53.431Z,68.04
2023-05-10T08:46:43.405Z,67.77
2023-05-10T08:49:32.976Z,69.04
2023-05-10T08:52:18.817Z,69.13
2023-05-10T08:55:04.123Z,69.63
2023-05-10T08:57:50.377Z,70.40
2023-05-10T09:00:36.213Z,71.65
2023-05-10T09:03:21.816Z,71.36
2023-05-10T09:06:07.873Z,72.92
2023-05-10T09:08:53.087Z,75.26
2023-05-10T09:11:38.439Z,74.39
2023-05-10T09:14:26.730Z,76.41
2023-05-10T09:17:12.104Z,76.61
2023-05-10T09:20:04.959Z,77.31
2023-05-10T09:22:52.049Z,78.80
2023-05-10T09:25:40.514Z,79.69
2023-05-10T09:28:27.208Z,81.23
2023-05-10T09:31:12.820Z,81.41
2023-05-10T09:33:58.207Z,80.93
2023-05-10T09:36:54.183Z,81.96
2023-05-10T09:39:40.072Z,81.67
2023-05-10T09:42:25.311Z,81.75
2023-05-10T09:45:10.642Z,83.59
2023-05-10T09:47:56.539Z,84.60
2023-05-10T09:50:42.643Z,83.93
2023-05-10T09:53:27.441Z,83.26
2023-05-10T09:56:12.403Z,83.55
2023-05-10T09:59:04.281Z,83.75
2023-05-10T10:01:53.730Z,84.53
2023-05-10T10:04:43.156Z,84.08
2023-05-10T10:07:28.869Z,86.06
2023-05-10T10:10:14.392Z,85.52
2023-05-10T10:13:00.350Z,85.66
2023-05-10T10:15:47.155Z,85.99
2023-05-10T10:18:32.387Z,85.45
2023-05-10T10:21:17.959Z,86.38
2023-05-10T10:24:06.154Z,85.78
2023-05-10T10:26:55.935Z,85.99
2023-05-10T10:29:53.326Z,87.66
2023-05-10T10:32:48.206Z,86.45
2023-05-10T10:35:34.137Z,87.66
2023-05-10T10:38:19.178Z,88.16
2023-05-10T10:41:12.389Z,88.62
2023-05-10T10:44:30.175Z,88.23
2023-05-10T10:47:20.046Z,88.75
2023-05-10T10:50:10.361Z,87.48
2023-05-10T10:52:56.033Z,85.45
2023-05-10T10:55:48.936Z,86.66
2023-05-10T10:58:35.436Z,85.83
2023-05-10T11:01:22.116Z,86.31
2023-05-10T11:04:10.188Z,86.43
2023-05-10T11:07:17.832Z,84.52
2023-05-10T11:10:06.539Z,84.98
2023-05-10T11:12:53.492Z,84.94
2023-05-10T11:15:39.910Z,84.84
2023-05-10T11:18:29.770Z,84.69
2023-05-10T11:21:16.597Z,83.89
2023-05-10T11:24:06.520Z,81.18
2023-05-10T11:26:54.384Z,84.40
2023-05-10T11:29:40.121Z,83.60
2023-05-10T11:32:25.270Z,84.37
2023-05-10T11:35:12.587Z,83.12
2023-05-10T11:37:58.020Z,84.13
2023-05-10T11:40:43.026Z,82.56
2023-05-10T11:43:31.569Z,83.25
2023-05-10T11:46:20.740Z,82.26
2023-05-10T11:49:08.930Z,84.13
2023-05-10T11:51:54.088Z,84.59
2023-05-10T11:54:46.332Z,83.72
2023-05-10T11:57:32.600Z,84.25
2023-05-10T12:00:18.258Z,86.66
2023-05-10T12:03:04.305Z,87.99
2023-05-10T12:05:50.164Z,87.10
2023-05-10T12:08:35.670Z,86.39
2023-05-10T12:11:22.711Z,83.40
2023-05-10T12:14:09.884Z,84.30
2023-05-10T12:16:58.186Z,85.79
2023-05-10T12:19:44.809Z,84.17
2023-05-10T12:22:30.516Z,85.83
2023-05-10T12:25:15.633Z,84.98
2023-05-10T12:28:04.578Z,84.69
2023-05-10T12:30:50.312Z,84.11
2023-05-10T12:33:49.479Z,81.71
2023-05-10T12:36:39.393Z,83.46
2023-05-10T12:39:25.802Z,82.52
2023-05-10T12:42:12.446Z,83.64
2023-05-10T12:44:58.260Z,80.47
2023-05-10T12:47:44.149Z,81.69
2023-05-10T12:50:29.380Z,81.70
2023-05-10T12:53:16.856Z,80.65
2023-05-10T12:56:02.834Z,81.14
2023-05-10T12:58:49.570Z,81.37
2023-05-10T13:01:35.091Z,80.72
2023-05-10T13:04:20.450Z,78.95
2023-05-10T13:07:09.283Z,76.06
2023-05-10T13:09:54.118Z,76.67
2023-05-10T13:12:39.775Z,78.01
2023-05-10T13:15:25.371Z,78.16
2023-05-10T13:18:10.597Z,76.52
2023-05-10T13:20:57.027Z,76.92
2023-05-10T13:23:42.010Z,75.83
2023-05-10T13:26:29.034Z,76.76
2023-05-10T13:29:14.229Z,76.09
2023-05-10T13:32:00.905Z,75.33
2023-05-10T13:34:46.615Z,75.73
2023-05-10T13:37:32.528Z,77.12
2023-05-10T13:40:17.570Z,73.56
2023-05-10T13:43:06.264Z,75.55
2023-05-10T13:45:51.420Z,74.12
2023-05-10T13:48:39.217Z,73.58
2023-05-10T13:51:25.351Z,73.50
2023-05-10T13:54:13.300Z,72.86
2023-05-10T13:56:58.681Z,72.89
2023-05-10T13:59:46.784Z,73.43
2023-05-10T14:02:34.687Z,73.16
2023-05-10T14:05:25.176Z,71.88
2023-05-10T14:08:11.763Z,72.90
2023-05-10T14:10:58.071Z,71.01
2023-05-10T14:13:43.616Z,70.20
2023-05-10T14:16:28.866Z,72.43
2023-05-10T14:19:14.037Z,70.28
2023-05-10T14:21:59.039Z,70.58
2023-05-10T14:24:47.959Z,71.69
2023-05-10T14:27:33.280Z,71.10
2023-05-10T14:30:18.825Z,69.47
2023-05-10T14:33:03.882Z,71.88
2023-05-10T14:35:49.789Z,70.60
2023-05-10T14:38:35.027Z,69.98
2023-05-10T14:41:20.171Z,69.60
2023-05-10T14:44:05.843Z,69.84
2023-05-10T14:46:51.708Z,69.19
2023-05-10T14:49:36.799Z,68.66
2023-05-10T14:52:22.204Z,69.77
2023-05-10T14:55:07.891Z,70.43
2023-05-10T14:57:52.939Z,70.50
2023-05-10T15:00:38.250Z,71.00
2023-05-10T15:03:24.274Z,70.71
2023-05-10T15:06:17.196Z,71.77
2023-05-10T15:09:04.368Z,70.55
2023-05-10T15:11:49.639Z,71.23
2023-05-10T15:14:37.176Z,71.23
2023-05-10T15:17:24.811Z,71.08
2023-05-10T15:20:11.043Z,70.57
2023-05-10T15:22:56.296Z,70.68
2023-05-10T15:25:41.725Z,70.37
2023-05-10T15:28:27.114Z,70.73
2023-05-10T15:31:12.116Z,70.71
2023-05-10T15:34:00.318Z,69.90
2023-05-10T15:36:46.261Z,69.71
2023-05-10T15:39:31.317Z,70.59
2023-05-10T15:42:17.849Z,69.37
2023-05-10T15:45:03.632Z,70.00
2023-05-10T15:47:48.872Z,69.71
2023-05-10T15:50:35.717Z,69.01
2023-05-10T15:53:21.536Z,68.62
2023-05-10T15:56:07.933Z,68.62
2023-05-10T15:58:53.172Z,68.19
2023-05-10T16:01:38.419Z,69.26
2023-05-10T16:04:23.564Z,69.62
2023-05-10T16:07:08.273Z,69.02
2023-05-10T16:09:53.281Z,70.14
2023-05-10T16:12:39.029Z,69.01
2023-05-10T16:15:24.011Z,69.11
2023-05-10T16:18:09.373Z,70.35
2023-05-10T16:20:59.588Z,69.98
2023-05-10T16:23:46.350Z,70.13
2023-05-10T16:26:33.793Z,67.98
2023-05-10T16:29:18.946Z,66.95
2023-05-10T16:32:03.864Z,69.08
2023-05-10T16:34:50.134Z,69.53
2023-05-10T16:37:36.378Z,69.66
2023-05-10T16:40:22.664Z,69.67
2023-05-10T16:43:08.001Z,69.88
2023-05-10T16:45:53.244Z,70.42
2023-05-10T16:48:38.486Z,70.00
2023-05-10T16:51:23.422Z,71.41
2023-05-10T16:54:08.550Z,71.93
2023-05-10T16:56:53.544Z,71.87
2023-05-10T16:59:39.102Z,71.89
2023-05-10T17:02:24.976Z,72.99
2023-05-10T17:05:10.547Z,72.39
2023-05-10T17:07:55.952Z,74.05
2023-05-10T17:10:41.433Z,73.20
2023-05-10T17:13:26.775Z,74.33
2023-05-10T17:16:13.253Z,73.89
2023-05-10T17:18:58.684Z,74.12
2023-05-10T17:21:43.988Z,75.24
2023-05-10T17:24:29.955Z,75.69
2023-05-10T17:27:15.008Z,74.20
2023-05-10T17:30:00.542Z,75.91
2023-05-10T17:32:45.651Z,76.64
2023-05-10T17:35:31.610Z,77.08
2023-05-10T17:38:16.956Z,76.28
2023-05-10T17:41:07.812Z,77.63
2023-05-10T17:43:55.644Z,78.33
2023-05-10T17:46:40.655Z,73.13
2023-05-10T17:49:25.702Z,77.77
2023-05-10T17:52:11.657Z,78.55
2023-05-10T17:54:57.303Z,79.47
2023-05-10T17:57:43.584Z,77.96
2023-05-10T18:00:29.189Z,78.08
2023-05-10T18:03:17.752Z,78.42
2023-05-10T18:06:04.780Z,78.42
2023-05-10T18:08:50.700Z,78.72
2023-05-10T18:11:42.216Z,78.71
2023-05-10T18:14:40.467Z,79.33
2023-05-10T18:17:26.798Z,79.25
2023-05-10T18:20:12.918Z,78.63
2023-05-10T18:23:01.620Z,79.94
2023-05-10T18:25:49.130Z,82.31
2023-05-10T18:28:37.629Z,83.03
2023-05-10T18:31:24.085Z,76.18
2023-05-10T18:34:09.426Z,77.75
2023-05-10T18:36:54.465Z,80.51
2023-05-10T18:39:53.075Z,78.15
2023-05-10T18:42:39.534Z,80.63
2023-05-10T18:45:36.618Z,81.30
2023-05-10T18:48:26.290Z,81.06
2023-05-10T18:51:12.541Z,80.52
2023-05-10T18:53:58.827Z,82.23
2023-05-10T18:56:45.568Z,81.69
2023-05-10T18:59:33.748Z,83.16
2023-05-10T19:02:18.998Z,84.04
2023-05-10T19:05:09.904Z,85.96
2023-05-10T19:07:57.042Z,85.36
2023-05-10T19:10:42.608Z,86.27
2023-05-10T19:13:28.822Z,84.17
2023-05-10T19:16:18.373Z,83.79
2023-05-10T19:19:04.656Z,84.25
2023-05-10T19:21:50.142Z,79.50
2023-05-10T19:24:37.365Z,79.57
2023-05-10T19:27:22.251Z,77.51
2023-05-10T19:30:11.157Z,79.26
2023-05-10T19:33:06.365Z,75.65
2023-05-10T19:35:54.415Z,80.75
2023-05-10T19:38:40.256Z,81.87
2023-05-10T19:41:26.890Z,83.86
2023-05-10T19:44:34.860Z,84.80
2023-05-10T19:47:21.269Z,84.99
2023-05-10T19:50:11.900Z,85.28
2023-05-10T19:52:58.391Z,81.68
2023-05-10T19:55:45.446Z,75.45
2023-05-10T19:58:31.050Z,79.66
2023-05-10T20:01:17.138Z,75.25
2023-05-10T20:04:03.204Z,73.98
2023-05-10T20:06:48.571Z,75.31
2023-05-10T20:09:33.567Z,76.42
2023-05-10T20:12:19.731Z,77.18
2023-05-10T20:15:08.370Z,79.19
2023-05-10T20:17:55.063Z,80.42
2023-05-10T20:20:42.711Z,78.17
2023-05-10T20:23:28.012Z,76.13
2023-05-10T20:26:13.044Z,78.20
2023-05-10T20:28:59.923Z,75.20
2023-05-10T20:31:45.648Z,76.89
2023-05-10T20:34:31.076Z,79.72
2023-05-10T20:37:23.489Z,79.80
2023-05-10T20:40:12.495Z,81.49
2023-05-10T20:42:58.016Z,76.65
2023-05-10T20:45:43.056Z,75.48
2023-05-10T20:48:29.659Z,76.72
2023-05-10T20:51:16.866Z,81.39
2023-05-10T20:54:06.659Z,79.87
2023-05-10T20:56:55.797Z,77.72
2023-05-10T20:59:43.399Z,77.09
2023-05-10T21:02:28.712Z,78.10
2023-05-10T21:05:16.852Z,78.22
2023-05-10T21:08:02.362Z,78.00
2023-05-10T21:13:19.653Z,78.62
2023-05-10T21:16:05.296Z,77.58
2023-05-10T21:18:50.400Z,80.66
2023-05-10T21:21:37.536Z,78.82
2023-05-10T21:24:23.188Z,74.01
2023-05-10T21:27:09.002Z,82.24
2023-05-10T21:29:54.342Z,76.17
2023-05-10T21:32:42.586Z,78.29
2023-05-10T21:35:29.957Z,80.16
2023-05-10T21:38:18.169Z,74.70
2023-05-10T21:41:11.174Z,79.45
2023-05-10T21:43:56.465Z,73.71
2023-05-10T21:46:43.870Z,81.29
2023-05-10T21:49:29.275Z,78.27
2023-05-10T21:52:15.447Z,80.19
2023-05-10T21:55:01.249Z,80.36
2023-05-10T21:57:47.930Z,84.15
2023-05-10T22:00:34.247Z,79.67
2023-05-10T22:03:19.897Z,78.73
2023-05-10T22:06:05.459Z,77.83
2023-05-10T22:08:51.385Z,83.72
2023-05-10T22:11:39.054Z,80.13
2023-05-10T22:14:25.354Z,76.90
2023-05-10T22:17:13.534Z,77.97
2023-05-10T22:20:03.352Z,73.54
2023-05-10T22:22:49.285Z,72.43
2023-05-10T22:25:34.552Z,74.06
2023-05-10T22:28:21.091Z,74.37
2023-05-10T22:31:13.391Z,78.31
2023-05-10T22:34:00.316Z,76.04
2023-05-10T22:36:47.933Z,75.53
2023-05-10T22:39:33.360Z,84.67
2023-05-10T22:42:21.165Z,86.28
2023-05-10T22:45:07.948Z,82.51
2023-05-10T22:47:55.631Z,75.47
2023-05-10T22:50:43.423Z,74.20
2023-05-10T22:53:28.567Z,76.72
2023-05-10T22:56:14.216Z,76.80
2023-05-10T22:59:00.500Z,72.31
2023-05-10T23:01:45.948Z,72.08
2023-05-10T23:04:40.970Z,73.04
2023-05-10T23:07:26.117Z,77.93
2023-05-10T23:10:19.347Z,70.47
2023-05-10T23:13:06.294Z,71.33
2023-05-10T23:15:57.609Z,73.39
2023-05-10T23:18:42.981Z,71.93
2023-05-10T23:21:31.295Z,70.81
2023-05-10T23:24:19.514Z,71.38
2023-05-10T23:27:04.921Z,74.45
2023-05-10T23:29:55.379Z,72.52
2023-05-10T23:32:40.554Z,72.39
2023-05-10T23:35:26.044Z,71.03
2023-05-10T23:38:12.281Z,71.69
2023-05-10T23:40:57.929Z,77.25
2023-05-10T23:43:43.832Z,72.61
2023-05-10T23:46:29.007Z,74.72
2023-05-10T23:49:13.955Z,72.54
2023-05-10T23:51:59.638Z,73.48
2023-05-10T23:54:46.073Z,74.92
2023-05-10T23:57:31.595Z,72.04
